Airfield :
LOGIN :

Register | Disclaimer

   EN    FR    IT 

 










Legend :    VFR   Marginal VFR   IFR   Intensive IFR   Very Intensive IFR
Visi :
Ceiling :
>= 8 km
>= 3000ft
5 to 8 km
1000 to 3000 ft
1500m to 5 km
500 to 1000 ft
800 to 1500m
200 to 500 ft
< 800m
< 200 ft
Symbols :   Thunderstorms  Fog  Heavy snow  Heavy precipitations  Wind > 20 kt
SIGMETs :     Misc.  Thunderstorms  Icing  Turbulence  Mountain Waves  Volcanic Ashes






- Airport Elevation : 1496 ft
- IATA code : SBZ


LRSB - Sibiu

CURRENT METAR :
  • 290730Z VRB01KT 9000 FEW004 SCT047 BKN075 13/12 Q1011 R27/19//95

EXPIRED METARs :
  • 290700Z 24002KT 7000 FEW001 SCT045 BKN072 13/12 Q1011 R27/19//95
  • 290630Z 19002KT 7000 FEW001 BKN045 13/12 Q1011 R27/19//95
  • 290600Z 02004KT 010V070 8000 FEW003 SCT045 13/12 Q1011 R27/19//95
  • 290530Z 00000KT 8000 FEW003 SCT045 12/11 Q1011 R27/29//95
  • 290500Z 01003KT 9999 SCT045 12/11 Q1011 R27/29//95

TAF TAF LRSB
Valid from the 29 at 06:00 until the 30 at 06:00 UTC


290500Z 2906/3006 VRB04KT 9999 SCT035 SCT060
BECMG 2908/2910 31012KT 5000 -SHRA SCT015 FEW035CB BKN060
TEMPO 2910/2914 3000 -TSRA BKN010 BKN035CB
BECMG 2916/2918 9999 NSW BKN020 BKN040
TEMPO 2918/3000 5000 -RA BKN010 OVC035



MET'MAP, your aeronautical weather chart ! - Copyright ORBIFLY December 2007 - Disclaimer

ORBIFLY MET'MAP TEAM :

Programming & Development : Alexandra Zaïnal
Concept & original design : Baudouin d'Aumeries
Assistance for programming : Marc-Olivier Méhu
Technical & hardware support : Manuel Goepfert

Contact : metmap@orbifly.com




SOURCES & CREDITS :

   NOAA